Terminal Aerodrome Forecast
Issued by NWS Buffalo, NY

Home | Current Version | Previous Version | Text Only | Print | Product List | Glossary On
Versions: 1 2 3 4 5 6 7 8 9 10 11 12 13 14 15 16 17 18 19 20 21 22 23 24 25
000
FTUS41 KBUF 042339
TAFBUF
TAF
KBUF 042339Z 0500/0524 05008KT P6SM BKN080
     FM050300 06006KT P6SM SCT080
     FM050800 05005KT 3SM BR BKN008
     FM051300 05012KT P6SM BKN040=

USA.gov is the U.S. government's official web portal to all federal, state and local government web resources and services.